Time;durP1;ratioP1;P1;durP2;ratioP2;P2;SDS_P1;SDS_P2;PMS_P1;PMS_P2;Temp;Humidity;BMP_temperature;BMP_pressure;BME280_temperature;BME280_humidity;BME280_pressure;Samples;Min_cycle;Max_cycle;Signal;HPM_P1;HPM_P2
2022/02/09 00:01:08;;;;;;;2.63;0.68;;;;;;;;;;5024065;28;20037;-71
2022/02/09 00:03:33;;;;;;;2.42;0.68;;;;;;;;;;5025581;28;20359;-71
2022/02/09 00:06:03;;;;;;;2.20;1.00;;;;;;;;;;5024515;28;20417;-71
2022/02/09 00:08:30;;;;;;;3.83;1.02;;;;;;;;;;5028395;28;20032;-71
2022/02/09 00:11:00;;;;;;;1.95;0.73;;;;;;;;;;5028758;28;20470;-71
2022/02/09 00:13:52;;;;;;;4.43;0.82;;;;;;;;;;5020424;28;20058;-71
2022/02/09 00:19:03;;;;;;;5.88;1.02;;;;;;;;;;5016777;28;20042;-70
2022/02/09 00:27:13;;;;;;;1.35;0.55;;;;;;;;;;4993378;28;20068;-71
2022/02/09 00:45:04;;;;;;;2.60;0.60;;;;;;;;;;5018031;28;20060;-71
2022/02/09 01:33:08;;;;;;;2.08;0.60;;;;;;;;;;5016057;28;20617;-70
2022/02/09 01:40:03;;;;;;;2.47;0.80;;;;;;;;;;5016615;28;20602;-70
2022/02/09 01:43:41;;;;;;;2.33;0.70;;;;;;;;;;5022192;28;20042;-71
2022/02/09 01:51:12;;;;;;;4.28;0.90;;;;;;;;;;5022085;28;20428;-71
2022/02/09 01:56:24;;;;;;;4.20;1.25;;;;;;;;;;5020374;28;20076;-71
2022/02/09 01:58:50;;;;;;;2.55;0.60;;;;;;;;;;5021428;28;20044;-71
2022/02/09 02:01:17;;;;;;;5.07;0.80;;;;;;;;;;5006568;28;20032;-70
2022/02/09 02:03:46;;;;;;;1.70;0.73;;;;;;;;;;5007892;28;20030;-71
2022/02/09 02:06:14;;;;;;;1.05;0.60;;;;;;;;;;5008098;28;20094;-71
2022/02/09 02:08:41;;;;;;;3.03;0.65;;;;;;;;;;5024206;28;20022;-71
2022/02/09 02:13:58;;;;;;;2.53;0.90;;;;;;;;;;5025929;28;20575;-71
2022/02/09 02:17:13;;;;;;;5.43;0.73;;;;;;;;;;5007554;28;20048;-71
2022/02/09 02:21:57;;;;;;;2.30;0.75;;;;;;;;;;5025880;28;20402;-71
2022/02/09 03:12:41;;;;;;;2.13;0.73;;;;;;;;;;5025588;28;20038;-72
2022/02/09 03:20:45;;;;;;;3.28;0.80;;;;;;;;;;5026851;28;20060;-72
2022/02/09 03:23:40;;;;;;;0.90;0.60;;;;;;;;;;5026766;28;20065;-71
2022/02/09 03:57:46;;;;;;;0.80;0.50;;;;;;;;;;5023996;28;20680;-71
2022/02/09 04:00:13;;;;;;;3.38;0.70;;;;;;;;;;5024082;28;20029;-71
2022/02/09 04:02:39;;;;;;;0.90;0.50;;;;;;;;;;5017734;28;20037;-71
2022/02/09 04:05:06;;;;;;;2.80;0.70;;;;;;;;;;5021252;28;20079;-71
2022/02/09 04:07:32;;;;;;;3.13;0.60;;;;;;;;;;5021391;28;20057;-71
2022/02/09 04:10:01;;;;;;;2.72;1.13;;;;;;;;;;5020116;28;20037;-71
2022/02/09 04:15:16;;;;;;;3.70;0.70;;;;;;;;;;5019169;28;20025;-71
2022/02/09 04:36:09;;;;;;;1.35;0.63;;;;;;;;;;5043428;28;20483;-72
2022/02/09 04:37:11;;;;;;;3.55;0.80;;;;;;;;;;5011332;28;20579;-72
2022/02/09 04:39:33;;;;;;;2.33;0.68;;;;;;;;;;5018232;28;20460;-71
2022/02/09 04:47:36;;;;;;;2.30;0.80;;;;;;;;;;5040371;28;20110;-72
2022/02/09 04:50:01;;;;;;;1.17;0.63;;;;;;;;;;5039294;28;20556;-72
2022/02/09 04:57:39;;;;;;;3.17;0.70;;;;;;;;;;5020677;28;20404;-72
2022/02/09 05:00:33;;;;;;;4.70;1.00;;;;;;;;;;5020694;28;20036;-72
2022/02/09 05:22:32;;;;;;;2.10;0.70;;;;;;;;;;5000146;28;20038;-71
2022/02/09 05:27:46;;;;;;;2.17;0.80;;;;;;;;;;5020386;28;20120;-71
2022/02/09 05:30:13;;;;;;;6.40;1.27;;;;;;;;;;5019780;28;20036;-71
2022/02/09 05:32:39;;;;;;;3.90;0.90;;;;;;;;;;5019773;28;20041;-72
2022/02/09 05:35:05;;;;;;;2.90;1.13;;;;;;;;;;5017961;28;20606;-71
2022/02/09 05:37:31;;;;;;;3.88;0.98;;;;;;;;;;5019769;28;20740;-72
2022/02/09 05:39:58;;;;;;;2.55;0.80;;;;;;;;;;5019734;28;20615;-72
2022/02/09 05:42:24;;;;;;;4.43;1.05;;;;;;;;;;5019751;28;20044;-71
2022/02/09 05:44:50;;;;;;;3.25;0.73;;;;;;;;;;5030527;28;20111;-72
2022/02/09 05:50:01;;;;;;;2.53;1.00;;;;;;;;;;5018541;28;20030;-72
2022/02/09 05:53:16;;;;;;;3.88;0.88;;;;;;;;;;5019587;28;20065;-72
2022/02/09 05:55:35;;;;;;;2.28;0.80;;;;;;;;;;5012123;28;20065;-72
2022/02/09 05:58:21;;;;;;;1.70;1.05;;;;;;;;;;5019466;28;20124;-71
2022/02/09 06:00:48;;;;;;;3.97;0.90;;;;;;;;;;5018281;28;20325;-72
2022/02/09 06:03:15;;;;;;;2.15;0.88;;;;;;;;;;5019685;28;20040;-73
2022/02/09 06:05:41;;;;;;;4.65;1.20;;;;;;;;;;5016459;28;20030;-71
2022/02/09 06:08:07;;;;;;;3.38;1.23;;;;;;;;;;4999574;28;20037;-71
2022/02/09 06:10:35;;;;;;;4.32;1.02;;;;;;;;;;5008799;28;20041;-71
2022/02/09 06:21:18;;;;;;;2.50;0.93;;;;;;;;;;5000019;28;20117;-71
2022/02/09 06:23:44;;;;;;;5.22;0.95;;;;;;;;;;4998868;28;20792;-71
2022/02/09 06:26:10;;;;;;;2.90;0.98;;;;;;;;;;4999791;28;20452;-72
2022/02/09 06:28:37;;;;;;;2.00;0.68;;;;;;;;;;4999758;28;20034;-71
2022/02/09 06:31:03;;;;;;;1.70;1.10;;;;;;;;;;5010288;28;20025;-71
2022/02/09 06:33:29;;;;;;;1.30;0.70;;;;;;;;;;5019761;28;20026;-71
2022/02/09 06:35:59;;;;;;;5.20;1.00;;;;;;;;;;5020565;28;20053;-72
2022/02/09 06:38:25;;;;;;;2.42;1.50;;;;;;;;;;5035281;28;20033;-71
2022/02/09 06:40:54;;;;;;;3.72;1.40;;;;;;;;;;5001355;28;20026;-71
2022/02/09 06:43:20;;;;;;;2.92;1.00;;;;;;;;;;5019200;28;20029;-71
2022/02/09 06:45:47;;;;;;;11.98;2.25;;;;;;;;;;5038044;28;20032;-71
2022/02/09 06:48:14;;;;;;;9.02;2.65;;;;;;;;;;5002979;28;20045;-71
2022/02/09 06:50:54;;;;;;;6.07;3.28;;;;;;;;;;5001815;28;20026;-71
2022/02/09 06:55:54;;;;;;;9.43;3.50;;;;;;;;;;5016048;28;20064;-72
2022/02/09 06:59:11;;;;;;;8.32;3.28;;;;;;;;;;5022587;28;20041;-71
2022/02/09 07:01:10;;;;;;;5.43;2.88;;;;;;;;;;4996075;28;20058;-71
2022/02/09 07:03:36;;;;;;;4.85;2.35;;;;;;;;;;5002834;28;20161;-71
2022/02/09 07:06:03;;;;;;;4.90;2.30;;;;;;;;;;5010704;28;20029;-71
2022/02/09 07:08:29;;;;;;;7.18;2.53;;;;;;;;;;5020901;28;20037;-71
2022/02/09 07:10:56;;;;;;;2.72;1.40;;;;;;;;;;5021839;28;20497;-72
2022/02/09 07:13:22;;;;;;;6.00;1.85;;;;;;;;;;5022920;28;20532;-71
2022/02/09 07:15:51;;;;;;;5.53;1.77;;;;;;;;;;5004477;28;20029;-72
2022/02/09 07:18:18;;;;;;;4.63;1.58;;;;;;;;;;5019105;28;20029;-71
2022/02/09 07:20:55;;;;;;;2.80;1.17;;;;;;;;;;5021517;28;20026;-71
2022/02/09 07:28:29;;;;;;;4.90;2.10;;;;;;;;;;5014120;28;20034;-72
2022/02/09 07:30:56;;;;;;;6.90;1.40;;;;;;;;;;5002389;28;20102;-71
2022/02/09 07:33:22;;;;;;;5.47;1.58;;;;;;;;;;4985347;28;20480;-72
2022/02/09 07:35:48;;;;;;;2.97;1.20;;;;;;;;;;5012252;28;20045;-71
2022/02/09 07:38:15;;;;;;;5.63;1.05;;;;;;;;;;5020919;28;20378;-71
2022/02/09 07:40:42;;;;;;;3.08;1.10;;;;;;;;;;5021506;28;20029;-71
2022/02/09 07:43:17;;;;;;;7.63;1.48;;;;;;;;;;5022010;28;20028;-71
2022/02/09 07:48:25;;;;;;;6.32;2.47;;;;;;;;;;5042196;28;20037;-71
2022/02/09 07:51:15;;;;;;;5.28;1.90;;;;;;;;;;5032609;28;20029;-71
2022/02/09 07:53:58;;;;;;;5.32;2.15;;;;;;;;;;5021813;28;20046;-72
2022/02/09 07:56:25;;;;;;;5.57;2.10;;;;;;;;;;5021904;28;20052;-72
2022/02/09 07:58:52;;;;;;;3.95;1.90;;;;;;;;;;5002079;28;20049;-71
2022/02/09 08:01:18;;;;;;;5.97;2.00;;;;;;;;;;5021702;28;20025;-72
2022/02/09 08:03:44;;;;;;;2.85;1.27;;;;;;;;;;5021211;28;20040;-73
2022/02/09 08:06:11;;;;;;;2.60;0.80;;;;;;;;;;5020928;28;20029;-72
2022/02/09 08:08:39;;;;;;;6.00;1.33;;;;;;;;;;5014236;28;20030;-72
2022/02/09 08:29:48;;;;;;;3.40;0.80;;;;;;;;;;5017321;28;20034;-70
2022/02/09 08:34:56;;;;;;;2.23;1.03;;;;;;;;;;5023140;28;20077;-71
2022/02/09 08:37:22;;;;;;;1.98;1.10;;;;;;;;;;5022034;28;20263;-72
2022/02/09 08:39:50;;;;;;;4.32;1.35;;;;;;;;;;5023147;28;20425;-72
2022/02/09 08:42:17;;;;;;;5.15;1.38;;;;;;;;;;5022818;28;20029;-71
2022/02/09 08:44:43;;;;;;;3.15;1.00;;;;;;;;;;5022746;28;20033;-72
2022/02/09 08:47:09;;;;;;;5.03;1.10;;;;;;;;;;5023044;28;20040;-72
2022/02/09 08:49:35;;;;;;;4.53;1.20;;;;;;;;;;5023092;28;20778;-70
2022/02/09 08:52:02;;;;;;;3.65;1.17;;;;;;;;;;5021435;28;20124;-72
2022/02/09 08:54:28;;;;;;;8.02;1.70;;;;;;;;;;5023257;28;20025;-72
2022/02/09 08:56:55;;;;;;;21.23;2.30;;;;;;;;;;5022647;28;20041;-72
2022/02/09 08:59:26;;;;;;;7.03;1.42;;;;;;;;;;5022718;28;20029;-72
2022/02/09 09:01:58;;;;;;;4.03;1.70;;;;;;;;;;5020997;28;20731;-71
2022/02/09 09:04:30;;;;;;;2.40;0.93;;;;;;;;;;5005220;28;20571;-72
2022/02/09 09:06:57;;;;;;;4.35;1.30;;;;;;;;;;5022694;28;20041;-72
2022/02/09 09:09:40;;;;;;;4.20;1.20;;;;;;;;;;5022476;28;20091;-71
2022/02/09 10:03:55;;;;;;;4.35;1.25;;;;;;;;;;5020317;28;20025;-71
2022/02/09 10:34:14;;;;;;;4.10;1.92;;;;;;;;;;5025022;28;20053;-70
2022/02/09 10:36:50;;;;;;;3.15;1.20;;;;;;;;;;5023993;28;20022;-71
2022/02/09 10:39:20;;;;;;;5.05;1.77;;;;;;;;;;5025156;28;20042;-71
2022/02/09 10:42:30;;;;;;;5.40;1.25;;;;;;;;;;5025421;28;20127;-71
2022/02/09 10:44:48;;;;;;;2.78;1.33;;;;;;;;;;5024603;28;20438;-71
2022/02/09 10:47:34;;;;;;;6.05;1.25;;;;;;;;;;5007908;28;20401;-71
2022/02/09 10:50:25;;;;;;;5.65;1.55;;;;;;;;;;5023511;28;20029;-71
2022/02/09 10:52:52;;;;;;;3.53;1.20;;;;;;;;;;5025725;28;20103;-72
2022/02/09 10:55:29;;;;;;;5.80;1.80;;;;;;;;;;5025285;28;20105;-71
2022/02/09 10:57:56;;;;;;;5.57;1.20;;;;;;;;;;5024748;28;20136;-71
2022/02/09 11:00:23;;;;;;;4.30;1.58;;;;;;;;;;5023904;28;20029;-71
2022/02/09 11:02:50;;;;;;;2.80;1.10;;;;;;;;;;5025088;28;20040;-70
2022/02/09 11:05:17;;;;;;;4.97;1.58;;;;;;;;;;5024843;28;20592;-71
2022/02/09 11:07:45;;;;;;;2.70;1.10;;;;;;;;;;5024882;28;20036;-71
2022/02/09 11:10:11;;;;;;;2.60;1.25;;;;;;;;;;5023247;28;20847;-71
2022/02/09 11:12:38;;;;;;;2.03;1.10;;;;;;;;;;5024557;28;20136;-70
2022/02/09 11:15:05;;;;;;;4.15;1.50;;;;;;;;;;5024724;28;20021;-71
2022/02/09 11:17:32;;;;;;;4.72;1.40;;;;;;;;;;5024592;28;20101;-71
2022/02/09 11:19:59;;;;;;;3.85;1.20;;;;;;;;;;5022830;28;20156;-71
2022/02/09 11:22:29;;;;;;;2.75;1.25;;;;;;;;;;5022745;28;20039;-69
2022/02/09 11:25:08;;;;;;;3.95;1.38;;;;;;;;;;5023233;28;20025;-68
2022/02/09 11:27:38;;;;;;;3.40;1.20;;;;;;;;;;5023575;28;20037;-69
2022/02/09 11:33:02;;;;;;;9.80;2.95;;;;;;;;;;5022755;28;20457;-68
2022/02/09 11:35:32;;;;;;;4.65;1.52;;;;;;;;;;5023198;28;20099;-70
2022/02/09 11:38:13;;;;;;;5.38;1.55;;;;;;;;;;5023958;28;20029;-71
2022/02/09 11:41:05;;;;;;;5.28;1.52;;;;;;;;;;5022376;28;20029;-70
2022/02/09 11:46:29;;;;;;;;;;;;;;;;;;5024521;28;20033;-69
2022/02/09 11:52:08;;;;;;;3.10;1.33;;;;;;;;;;5023066;28;19975;-69
2022/02/09 12:10:47;;;;;;;6.00;1.90;;;;;;;;;;5023527;28;20757;-69
2022/02/09 12:13:41;;;;;;;3.72;1.35;;;;;;;;;;5023344;28;20516;-72
2022/02/09 12:16:37;;;;;;;7.30;2.22;;;;;;;;;;5021917;28;20209;-69
2022/02/09 12:19:09;;;;;;;4.50;1.35;;;;;;;;;;5023331;28;20055;-70
2022/02/09 12:21:43;;;;;;;;;;;;;;;;;;5023580;28;20412;-70
2022/02/09 12:24:20;;;;;;;5.85;1.88;;;;;;;;;;5023064;28;20360;-72
2022/02/09 12:26:53;;;;;;;4.18;1.25;;;;;;;;;;5022714;28;20056;-71
2022/02/09 12:29:19;;;;;;;5.30;1.77;;;;;;;;;;5021531;28;20436;-70
2022/02/09 12:31:45;;;;;;;5.20;1.77;;;;;;;;;;5022643;28;20022;-70
2022/02/09 12:34:21;;;;;;;8.23;2.72;;;;;;;;;;5021467;28;20060;-69
2022/02/09 12:36:48;;;;;;;4.55;1.65;;;;;;;;;;5022593;28;20013;-72
2022/02/09 12:39:15;;;;;;;3.65;1.48;;;;;;;;;;5023321;28;20032;-72
2022/02/09 12:41:43;;;;;;;6.30;1.65;;;;;;;;;;5022162;28;20026;-74
2022/02/09 12:44:09;;;;;;;4.88;1.80;;;;;;;;;;5020504;28;20500;-69
2022/02/09 12:46:37;;;;;;;6.75;2.60;;;;;;;;;;5022368;28;20044;-71
2022/02/09 12:49:06;;;;;;;6.15;1.60;;;;;;;;;;5022152;28;20106;-69
2022/02/09 12:51:32;;;;;;;5.07;1.50;;;;;;;;;;5022115;28;20481;-72
2022/02/09 12:54:00;;;;;;;5.35;1.98;;;;;;;;;;5002794;28;20396;-72
2022/02/09 12:56:32;;;;;;;4.53;1.63;;;;;;;;;;5022410;28;20053;-69
2022/02/09 12:59:09;;;;;;;3.85;1.63;;;;;;;;;;5020852;28;20033;-71
2022/02/09 13:01:48;;;;;;;3.88;1.60;;;;;;;;;;5021212;28;20026;-70
2022/02/09 13:04:32;;;;;;;3.88;1.75;;;;;;;;;;5020476;28;20520;-72
2022/02/09 13:06:59;;;;;;;4.38;1.52;;;;;;;;;;5016487;28;20482;-70
2022/02/09 13:09:26;;;;;;;4.68;1.90;;;;;;;;;;5021547;28;20029;-71
2022/02/09 13:11:53;;;;;;;3.65;1.90;;;;;;;;;;5021595;28;20033;-69
2022/02/09 13:14:29;;;;;;;2.97;1.70;;;;;;;;;;5021872;28;20056;-71
2022/02/09 13:20:08;;;;;;;4.20;1.90;;;;;;;;;;5013644;28;20037;-70
2022/02/09 14:17:08;;;;;;;4.95;1.38;;;;;;;;;;5018379;28;20045;-72
2022/02/09 14:23:51;;;;;;;2.03;1.27;;;;;;;;;;5017137;28;20033;-71
2022/02/09 14:57:14;;;;;;;5.57;1.25;;;;;;;;;;5018321;28;20036;-72
2022/02/09 15:08:06;;;;;;;5.15;1.52;;;;;;;;;;5038867;28;20035;-72
2022/02/09 15:10:40;;;;;;;2.78;1.45;;;;;;;;;;5041751;28;20025;-71
2022/02/09 15:13:28;;;;;;;7.75;1.40;;;;;;;;;;5027758;28;20042;-71
2022/02/09 15:16:07;;;;;;;6.18;1.20;;;;;;;;;;5021565;28;20065;-72
2022/02/09 15:23:38;;;;;;;4.13;1.52;;;;;;;;;;5021869;28;20038;-72
2022/02/09 15:26:05;;;;;;;3.30;1.45;;;;;;;;;;5021997;28;20096;-71
2022/02/09 15:28:32;;;;;;;2.50;1.27;;;;;;;;;;5021929;28;20644;-72
2022/02/09 15:33:39;;;;;;;4.43;1.40;;;;;;;;;;5002035;28;20042;-72
2022/02/09 15:36:10;;;;;;;5.28;1.17;;;;;;;;;;5001814;28;20104;-72
2022/02/09 15:38:45;;;;;;;3.30;1.35;;;;;;;;;;5002111;28;20037;-71
2022/02/09 15:41:31;;;;;;;5.07;1.35;;;;;;;;;;5000500;28;20080;-72
2022/02/09 16:37:47;;;;;;;4.00;1.45;;;;;;;;;;5000867;28;20466;-71
2022/02/09 16:46:30;;;;;;;4.00;1.38;;;;;;;;;;5018538;28;20087;-72
2022/02/09 16:48:32;;;;;;;5.88;1.60;;;;;;;;;;5008392;28;20037;-72
2022/02/09 16:51:01;;;;;;;3.25;1.70;;;;;;;;;;5020201;28;20021;-72
2022/02/09 17:19:32;;;;;;;6.70;2.00;;;;;;;;;;5000191;28;20049;-72
2022/02/09 17:21:58;;;;;;;4.85;1.80;;;;;;;;;;5014968;28;20629;-75
2022/02/09 17:24:28;;;;;;;3.63;1.77;;;;;;;;;;5019074;28;20029;-72
2022/02/09 17:26:54;;;;;;;4.50;1.60;;;;;;;;;;5019691;28;20030;-71
2022/02/09 17:29:25;;;;;;;2.60;1.10;;;;;;;;;;5018078;28;20177;-71
2022/02/09 17:34:43;;;;;;;3.55;1.30;;;;;;;;;;5017302;28;20057;-71
2022/02/09 17:53:28;;;;;;;2.22;1.15;;;;;;;;;;5018904;28;20096;-72
2022/02/09 17:55:57;;;;;;;1.60;0.70;;;;;;;;;;5019282;28;20109;-71
2022/02/09 17:58:30;;;;;;;2.05;1.20;;;;;;;;;;5018163;28;20514;-72
2022/02/09 18:00:57;;;;;;;2.58;1.00;;;;;;;;;;5017438;28;20532;-73
2022/02/09 18:03:23;;;;;;;9.35;1.25;;;;;;;;;;5016752;28;20037;-72
2022/02/09 18:05:52;;;;;;;2.45;1.00;;;;;;;;;;5022766;28;20544;-74
2022/02/09 18:08:31;;;;;;;2.47;1.02;;;;;;;;;;5000145;28;20037;-71
2022/02/09 18:11:18;;;;;;;2.15;1.02;;;;;;;;;;5008580;28;20500;-73
2022/02/09 18:14:14;;;;;;;1.33;0.60;;;;;;;;;;5002617;28;20068;-71
2022/02/09 18:30:08;;;;;;;2.42;0.95;;;;;;;;;;5000119;28;20022;-72
2022/02/09 18:33:09;;;;;;;1.70;1.02;;;;;;;;;;4999464;28;20064;-72
2022/02/09 18:38:30;;;;;;;1.60;0.90;;;;;;;;;;5038772;28;20080;-71
2022/02/09 19:02:36;;;;;;;3.08;1.98;;;;;;;;;;5019155;28;20134;-71
2022/02/09 19:16:11;;;;;;;3.85;1.65;;;;;;;;;;5029025;28;20079;-72
2022/02/09 19:19:04;;;;;;;6.38;3.13;;;;;;;;;;5021294;28;20095;-71
2022/02/09 19:27:08;;;;;;;4.40;2.17;;;;;;;;;;5022131;28;20136;-71
2022/02/09 19:30:37;;;;;;;3.90;1.80;;;;;;;;;;5019577;28;20048;-71
2022/02/09 19:32:58;;;;;;;3.10;1.75;;;;;;;;;;5012466;28;20033;-72
2022/02/09 19:48:43;;;;;;;3.38;1.67;;;;;;;;;;5021843;28;20048;-72
2022/02/09 19:51:32;;;;;;;3.08;1.73;;;;;;;;;;5021082;28;20559;-71
2022/02/09 19:56:27;;;;;;;1.73;0.70;;;;;;;;;;5019488;28;20044;-71
2022/02/09 19:58:58;;;;;;;2.65;2.25;;;;;;;;;;4991127;28;20501;-72
2022/02/09 20:01:32;;;;;;;2.30;1.52;;;;;;;;;;5021028;28;20022;-72
2022/02/09 20:03:58;;;;;;;3.38;1.83;;;;;;;;;;5017196;28;20033;-72
2022/02/09 20:06:24;;;;;;;4.00;1.38;;;;;;;;;;5024288;28;20018;-72
2022/02/09 20:08:50;;;;;;;1.90;0.73;;;;;;;;;;5020642;28;20033;-71
2022/02/09 20:11:17;;;;;;;1.52;0.93;;;;;;;;;;5021271;28;20100;-71
2022/02/09 20:13:44;;;;;;;4.88;1.00;;;;;;;;;;5021028;28;20160;-71
2022/02/09 20:16:10;;;;;;;2.10;1.20;;;;;;;;;;5012814;28;20037;-71
2022/02/09 20:18:37;;;;;;;2.25;1.02;;;;;;;;;;5002694;28;20034;-72
2022/02/09 20:21:03;;;;;;;4.63;1.85;;;;;;;;;;5015988;28;20657;-71
2022/02/09 20:23:32;;;;;;;1.88;0.90;;;;;;;;;;5020237;28;20100;-72
2022/02/09 20:26:01;;;;;;;0.80;0.57;;;;;;;;;;5004266;28;20037;-71
2022/02/09 20:28:27;;;;;;;1.73;1.13;;;;;;;;;;5019387;28;20066;-71
2022/02/09 20:31:00;;;;;;;3.03;1.80;;;;;;;;;;5001095;28;20473;-71
2022/02/09 20:33:33;;;;;;;2.92;1.63;;;;;;;;;;5017759;28;20033;-71
2022/02/09 20:35:59;;;;;;;1.27;0.90;;;;;;;;;;5019026;28;20614;-72
2022/02/09 20:38:28;;;;;;;4.25;1.83;;;;;;;;;;5018615;28;20033;-71
2022/02/09 20:40:58;;;;;;;3.55;1.55;;;;;;;;;;5019848;28;20088;-71
2022/02/09 20:43:25;;;;;;;2.08;1.10;;;;;;;;;;5022063;28;20025;-68
2022/02/09 20:45:55;;;;;;;2.25;1.10;;;;;;;;;;5021074;28;20531;-70
2022/02/09 20:48:26;;;;;;;3.67;2.25;;;;;;;;;;5012814;28;20393;-71
2022/02/09 20:50:53;;;;;;;2.83;2.00;;;;;;;;;;5016259;28;20444;-71
2022/02/09 20:53:20;;;;;;;2.17;1.50;;;;;;;;;;5019247;28;20103;-71
2022/02/09 20:55:47;;;;;;;2.65;1.60;;;;;;;;;;5018694;28;20064;-71
2022/02/09 20:58:13;;;;;;;0.98;0.50;;;;;;;;;;5019908;28;20108;-71
2022/02/09 21:03:42;;;;;;;1.50;0.90;;;;;;;;;;5020550;28;20588;-70
2022/02/09 21:56:18;;;;;;;;;;;;;;;;;;5000186;28;20026;-71
2022/02/09 22:01:38;;;;;;;0.10;0.10;;;;;;;;;;5013964;28;20048;-71
2022/02/09 22:22:03;;;;;;;0.82;0.30;;;;;;;;;;4959209;28;20043;-71
2022/02/09 22:29:19;;;;;;;5.97;0.70;;;;;;;;;;5003616;28;20072;-70
2022/02/09 22:55:38;;;;;;;0.22;0.15;;;;;;;;;;5006819;28;20037;-70
2022/02/09 22:58:06;;;;;;;0.40;0.30;;;;;;;;;;5020884;28;20104;-70
2022/02/09 23:00:36;;;;;;;0.55;0.30;;;;;;;;;;5021899;28;20026;-70
2022/02/09 23:03:03;;;;;;;0.80;0.30;;;;;;;;;;5021724;28;20029;-70
2022/02/09 23:14:43;;;;;;;2.47;0.40;;;;;;;;;;5021859;28;20191;-71
2022/02/09 23:25:13;;;;;;;0.57;0.50;;;;;;;;;;5021174;28;19908;-70
